createdAt,value
2018-10-19T00:01:46.187Z,11.80
2018-10-19T00:04:14.546Z,11.80
2018-10-19T00:06:42.881Z,11.80
2018-10-19T00:09:11.261Z,11.70
2018-10-19T00:11:39.572Z,11.70
2018-10-19T00:14:07.888Z,11.70
2018-10-19T00:16:36.307Z,11.60
2018-10-19T00:19:04.682Z,11.60
2018-10-19T00:21:33.037Z,11.50
2018-10-19T00:24:01.419Z,11.40
2018-10-19T00:26:29.768Z,11.40
2018-10-19T00:28:58.132Z,11.30
2018-10-19T00:31:26.457Z,11.20
2018-10-19T00:33:54.989Z,11.20
2018-10-19T00:36:23.328Z,11.10
2018-10-19T00:38:51.663Z,11.00
2018-10-19T00:41:20.025Z,10.90
2018-10-19T00:43:48.369Z,10.90
2018-10-19T00:46:16.718Z,10.80
2018-10-19T00:48:45.049Z,10.80
2018-10-19T00:51:13.555Z,10.70
2018-10-19T00:53:41.819Z,10.70
2018-10-19T00:56:10.170Z,10.60
2018-10-19T00:58:39.298Z,10.50
2018-10-19T01:01:07.653Z,10.50
2018-10-19T01:03:36.052Z,10.50
2018-10-19T01:06:04.427Z,10.40
2018-10-19T01:08:32.772Z,10.40
2018-10-19T01:11:01.182Z,10.30
2018-10-19T01:13:29.547Z,10.30
2018-10-19T01:15:58.652Z,10.30
2018-10-19T01:18:27.035Z,10.30
2018-10-19T01:20:55.454Z,10.20
2018-10-19T01:23:23.800Z,10.20
2018-10-19T01:25:52.164Z,10.20
2018-10-19T01:28:20.520Z,10.10
2018-10-19T01:30:49.673Z,10.10
2018-10-19T01:33:17.993Z,10.00
2018-10-19T01:35:46.361Z,10.00
2018-10-19T01:38:14.756Z,10.00
2018-10-19T01:40:43.071Z,10.00
2018-10-19T01:43:11.434Z,9.90
2018-10-19T01:45:39.796Z,9.90
2018-10-19T01:48:08.142Z,9.90
2018-10-19T01:50:36.463Z,9.90
2018-10-19T01:53:05.612Z,9.90
2018-10-19T01:55:34.674Z,9.90
2018-10-19T01:58:03.027Z,9.90
2018-10-19T02:00:32.150Z,9.90
2018-10-19T02:03:00.556Z,9.90
2018-10-19T02:05:30.390Z,9.90
2018-10-19T02:07:58.740Z,9.90
2018-10-19T02:10:27.100Z,9.90
2018-10-19T02:12:55.444Z,9.90
2018-10-19T02:15:23.873Z,9.90
2018-10-19T02:17:52.202Z,9.80
2018-10-19T02:20:20.562Z,9.80
2018-10-19T02:22:48.950Z,9.70
2018-10-19T02:25:17.350Z,9.70
2018-10-19T02:27:46.458Z,9.60
2018-10-19T02:30:15.568Z,9.60
2018-10-19T02:32:44.645Z,9.60
2018-10-19T02:35:13.859Z,9.50
2018-10-19T02:37:42.105Z,9.50
2018-10-19T02:40:10.451Z,9.50
2018-10-19T02:42:38.754Z,9.40
2018-10-19T02:45:07.134Z,9.40
2018-10-19T02:47:35.430Z,9.40
2018-10-19T02:50:04.531Z,9.30
2018-10-19T02:52:33.609Z,9.30
2018-10-19T02:55:01.979Z,9.30
2018-10-19T02:57:30.337Z,9.30
2018-10-19T02:59:58.668Z,9.30
2018-10-19T03:02:27.816Z,9.20
2018-10-19T03:04:56.163Z,9.20
2018-10-19T03:07:24.505Z,9.20
2018-10-19T03:09:53.603Z,9.20
2018-10-19T03:12:21.944Z,9.10
2018-10-19T03:14:50.276Z,9.10
2018-10-19T03:17:19.405Z,9.10
2018-10-19T03:19:47.759Z,9.10
2018-10-19T03:22:16.117Z,9.00
2018-10-19T03:24:44.454Z,9.00
2018-10-19T03:27:12.865Z,8.90
2018-10-19T03:29:41.119Z,8.90
2018-10-19T03:32:09.447Z,8.80
2018-10-19T03:34:38.562Z,8.80
2018-10-19T03:37:06.924Z,8.80
2018-10-19T03:39:36.075Z,8.80
2018-10-19T03:42:04.393Z,8.70
2018-10-19T03:44:33.522Z,8.70
2018-10-19T03:47:01.880Z,8.70
2018-10-19T03:49:30.176Z,8.70
2018-10-19T03:51:58.504Z,8.70
2018-10-19T03:54:26.872Z,8.60
2018-10-19T03:56:55.257Z,8.60
2018-10-19T03:59:23.619Z,8.60
2018-10-19T04:01:52.006Z,8.50
2018-10-19T04:04:20.348Z,8.50
2018-10-19T04:06:48.675Z,8.50
2018-10-19T04:09:17.080Z,8.40
2018-10-19T04:11:45.360Z,8.40
2018-10-19T04:14:13.783Z,8.40
2018-10-19T04:16:42.102Z,8.40
2018-10-19T04:19:10.525Z,8.30
2018-10-19T04:21:38.872Z,8.30
2018-10-19T04:24:08.005Z,8.20
2018-10-19T04:26:36.365Z,8.20
2018-10-19T04:29:04.712Z,8.20
2018-10-19T04:31:33.119Z,8.20
2018-10-19T04:34:02.213Z,8.10
2018-10-19T04:36:30.599Z,8.10
2018-10-19T04:38:59.718Z,8.00
2018-10-19T04:41:28.150Z,8.00
2018-10-19T04:43:56.514Z,8.00
2018-10-19T04:46:24.845Z,8.00
2018-10-19T04:48:53.263Z,8.00
2018-10-19T04:51:21.625Z,8.00
2018-10-19T04:53:50.033Z,7.90
2018-10-19T04:56:18.306Z,7.90
2018-10-19T04:58:46.812Z,7.90
2018-10-19T05:01:15.942Z,7.90
2018-10-19T05:03:44.303Z,7.90
2018-10-19T05:06:12.662Z,7.90
2018-10-19T05:08:41.007Z,7.80
2018-10-19T05:11:09.357Z,7.80
2018-10-19T05:13:37.797Z,7.80
2018-10-19T05:16:06.113Z,7.80
2018-10-19T05:18:34.508Z,7.80
2018-10-19T05:21:02.831Z,7.70
2018-10-19T05:23:31.225Z,7.70
2018-10-19T05:25:59.602Z,7.70
2018-10-19T05:28:27.905Z,7.60
2018-10-19T05:30:56.256Z,7.60
2018-10-19T05:33:25.399Z,7.50
2018-10-19T05:35:53.708Z,7.50
2018-10-19T05:38:22.060Z,7.50
2018-10-19T05:40:50.440Z,7.50
2018-10-19T05:43:18.856Z,7.50
2018-10-19T05:45:47.177Z,7.50
2018-10-19T05:48:15.520Z,7.50
2018-10-19T05:50:43.877Z,7.50
2018-10-19T05:53:12.222Z,7.50
2018-10-19T05:55:40.588Z,7.40
2018-10-19T05:58:09.272Z,7.40
2018-10-19T06:00:37.609Z,7.40
2018-10-19T06:03:05.955Z,7.40
2018-10-19T06:05:34.409Z,7.40
2018-10-19T06:08:02.834Z,7.40
2018-10-19T06:10:31.177Z,7.30
2018-10-19T06:12:59.515Z,7.30
2018-10-19T06:15:27.837Z,7.30
2018-10-19T06:17:56.202Z,7.30
2018-10-19T06:20:24.569Z,7.30
2018-10-19T06:22:53.697Z,7.40
2018-10-19T06:25:22.785Z,7.40
2018-10-19T06:27:52.150Z,7.40
2018-10-19T06:30:21.275Z,7.50
2018-10-19T06:32:49.657Z,7.40
2018-10-19T06:35:18.048Z,7.50
2018-10-19T06:37:47.162Z,7.50
2018-10-19T06:40:15.495Z,7.50
2018-10-19T06:42:44.599Z,7.60
2018-10-19T06:45:12.944Z,7.70
2018-10-19T06:47:41.936Z,7.80
2018-10-19T06:50:10.360Z,7.90
2018-10-19T06:52:38.622Z,7.90
2018-10-19T06:55:06.985Z,8.00
2018-10-19T06:57:35.325Z,8.00
2018-10-19T07:00:03.689Z,8.10
2018-10-19T07:02:32.029Z,8.20
2018-10-19T07:05:00.339Z,8.30
2018-10-19T07:07:28.705Z,8.40
2018-10-19T07:09:57.021Z,8.50
2018-10-19T07:12:25.365Z,8.60
2018-10-19T07:14:53.698Z,8.70
2018-10-19T07:17:22.037Z,8.80
2018-10-19T07:19:50.395Z,8.90
2018-10-19T07:22:19.308Z,8.90
2018-10-19T07:24:47.673Z,9.00
2018-10-19T07:27:16.018Z,9.10
2018-10-19T07:29:44.395Z,9.30
2018-10-19T07:32:12.797Z,9.40
2018-10-19T07:34:41.083Z,9.50
2018-10-19T07:37:09.428Z,9.50
2018-10-19T07:39:37.771Z,9.60
2018-10-19T07:42:06.166Z,9.70
2018-10-19T07:44:35.209Z,9.90
2018-10-19T07:47:04.366Z,9.90
2018-10-19T07:49:33.401Z,10.00
2018-10-19T07:52:01.756Z,10.00
2018-10-19T07:54:30.161Z,10.10
2018-10-19T07:56:58.486Z,10.20
2018-10-19T07:59:26.921Z,10.20
2018-10-19T08:01:55.331Z,10.30
2018-10-19T08:04:23.679Z,10.40
2018-10-19T08:06:52.013Z,10.40
2018-10-19T08:09:20.379Z,10.50
2018-10-19T08:11:48.724Z,10.50
2018-10-19T08:14:17.894Z,10.50
2018-10-19T08:16:46.171Z,10.50
2018-10-19T08:19:15.315Z,10.50
2018-10-19T08:21:43.661Z,10.50
2018-10-19T08:24:12.005Z,10.50
2018-10-19T08:26:40.334Z,10.50
2018-10-19T08:29:08.747Z,10.60
2018-10-19T08:31:37.819Z,10.60
2018-10-19T08:34:06.196Z,10.60
2018-10-19T08:36:34.557Z,10.70
2018-10-19T08:39:02.913Z,10.70
2018-10-19T08:41:31.293Z,10.70
2018-10-19T08:44:00.417Z,10.70
2018-10-19T08:46:28.777Z,10.70
2018-10-19T08:48:57.927Z,10.90
2018-10-19T08:51:27.731Z,10.90
2018-10-19T08:53:56.101Z,10.90
2018-10-19T08:56:25.276Z,11.00
2018-10-19T08:58:53.650Z,11.00
2018-10-19T09:01:22.164Z,11.10
2018-10-19T09:03:50.632Z,11.10
2018-10-19T09:06:18.997Z,11.20
2018-10-19T09:08:47.395Z,11.20
2018-10-19T09:11:15.852Z,11.20
2018-10-19T09:13:45.803Z,11.30
2018-10-19T09:16:14.131Z,11.40
2018-10-19T09:18:43.290Z,11.50
2018-10-19T09:21:11.699Z,11.50
2018-10-19T09:23:40.728Z,11.60
2018-10-19T09:26:09.114Z,11.60
2018-10-19T09:28:37.480Z,11.70
2018-10-19T09:31:05.847Z,11.80
2018-10-19T09:33:34.962Z,11.90
2018-10-19T09:36:03.416Z,11.90
2018-10-19T09:38:32.462Z,12.00
2018-10-19T09:41:00.911Z,12.00
2018-10-19T09:43:29.172Z,12.00
2018-10-19T09:45:57.976Z,12.10
2018-10-19T09:48:27.525Z,12.10
2018-10-19T09:50:55.926Z,12.10
2018-10-19T09:53:24.280Z,12.20
2018-10-19T09:55:52.622Z,12.30
2018-10-19T09:58:23.699Z,12.40
2018-10-19T10:00:52.053Z,12.40
2018-10-19T10:03:20.382Z,12.40
2018-10-19T10:05:54.035Z,12.60
2018-10-19T10:08:25.471Z,12.60
2018-10-19T10:10:54.022Z,12.70
2018-10-19T10:13:22.375Z,12.80
2018-10-19T10:15:51.380Z,12.80
2018-10-19T10:18:19.867Z,12.90
2018-10-19T10:20:50.246Z,13.10
2018-10-19T10:23:18.595Z,13.00
2018-10-19T10:25:46.937Z,13.10
2018-10-19T10:28:15.407Z,13.20
2018-10-19T10:30:43.669Z,13.30
2018-10-19T10:33:12.295Z,13.30
2018-10-19T10:35:40.657Z,13.30
2018-10-19T10:38:08.981Z,13.40
2018-10-19T10:40:37.393Z,13.50
2018-10-19T10:43:05.925Z,13.60
2018-10-19T10:45:34.299Z,13.60
2018-10-19T10:48:04.213Z,13.70
2018-10-19T10:50:32.663Z,13.70
2018-10-19T10:53:01.001Z,13.80
2018-10-19T10:55:30.150Z,14.30
2018-10-19T10:57:58.539Z,14.30
2018-10-19T11:00:26.867Z,15.00
2018-10-19T11:02:56.010Z,17.00
2018-10-19T11:05:24.398Z,16.90
2018-10-19T11:07:52.759Z,18.10
2018-10-19T11:10:21.225Z,18.90
2018-10-19T11:12:49.547Z,20.10
2018-10-19T11:15:17.901Z,20.70
2018-10-19T11:17:46.405Z,21.60
2018-10-19T11:20:14.722Z,22.00
2018-10-19T11:22:43.951Z,22.80
2018-10-19T11:25:12.351Z,22.70
2018-10-19T11:27:41.425Z,23.90
2018-10-19T11:30:09.756Z,23.80
2018-10-19T11:32:38.900Z,24.30
2018-10-19T11:35:07.273Z,24.30
2018-10-19T11:37:35.686Z,24.80
2018-10-19T11:40:22.887Z,25.30
2018-10-19T11:42:51.264Z,25.20
2018-10-19T11:45:19.807Z,25.60
2018-10-19T11:47:48.543Z,25.90
2018-10-19T11:50:16.933Z,26.00
2018-10-19T11:52:45.291Z,26.30
2018-10-19T11:55:13.764Z,26.00
2018-10-19T11:57:42.077Z,25.70
2018-10-19T12:00:10.529Z,25.80
2018-10-19T12:02:39.009Z,25.90
2018-10-19T12:05:07.384Z,26.00
2018-10-19T12:07:35.765Z,26.20
2018-10-19T12:10:04.203Z,26.40
2018-10-19T12:12:32.516Z,26.60
2018-10-19T12:15:01.690Z,26.80
2018-10-19T12:17:30.005Z,26.80
2018-10-19T12:19:58.379Z,27.00
2018-10-19T12:22:26.735Z,27.20
2018-10-19T12:24:55.885Z,28.10
2018-10-19T12:27:24.333Z,28.00
2018-10-19T12:29:52.793Z,27.50
2018-10-19T12:32:22.039Z,27.20
2018-10-19T12:34:50.396Z,27.20
2018-10-19T12:37:18.788Z,27.30
2018-10-19T12:39:47.107Z,27.40
2018-10-19T12:42:15.475Z,27.30
2018-10-19T12:44:43.991Z,27.50
2018-10-19T12:47:31.101Z,27.60
2018-10-19T12:49:59.407Z,27.60
2018-10-19T12:52:27.759Z,27.60
2018-10-19T12:54:57.022Z,28.10
2018-10-19T12:57:25.452Z,28.10
2018-10-19T12:59:55.527Z,27.70
2018-10-19T13:02:23.899Z,27.70
2018-10-19T13:04:52.879Z,27.30
2018-10-19T13:07:21.242Z,27.70
2018-10-19T13:09:49.595Z,27.40
2018-10-19T13:12:18.715Z,26.40
2018-10-19T13:14:47.670Z,26.40
2018-10-19T13:17:16.810Z,26.90
2018-10-19T13:19:45.396Z,26.80
2018-10-19T13:22:13.738Z,26.70
2018-10-19T13:24:42.681Z,26.40
2018-10-19T13:27:11.108Z,26.50
2018-10-19T13:29:39.384Z,26.40
2018-10-19T13:32:07.726Z,26.50
2018-10-19T13:34:36.098Z,26.60
2018-10-19T13:37:04.607Z,26.90
2018-10-19T13:39:32.950Z,27.10
2018-10-19T13:42:01.344Z,27.10
2018-10-19T13:44:29.701Z,27.00
2018-10-19T13:46:58.080Z,26.90
2018-10-19T13:49:26.460Z,27.10
2018-10-19T13:51:54.798Z,27.50
2018-10-19T13:54:23.230Z,27.70
2018-10-19T13:56:51.607Z,27.70
2018-10-19T13:59:20.009Z,27.40
2018-10-19T14:01:48.363Z,27.40
2018-10-19T14:04:16.713Z,27.80
2018-10-19T14:06:45.066Z,27.60
2018-10-19T14:09:14.252Z,27.40
2018-10-19T14:11:43.324Z,27.00
2018-10-19T14:14:11.703Z,27.00
2018-10-19T14:16:40.089Z,26.60
2018-10-19T14:19:08.717Z,26.40
2018-10-19T14:21:37.054Z,26.80
2018-10-19T14:24:05.417Z,26.40
2018-10-19T14:26:34.899Z,25.90
2018-10-19T14:29:03.443Z,25.50
2018-10-19T14:31:31.789Z,25.40
2018-10-19T14:34:00.144Z,25.50
2018-10-19T14:36:28.554Z,25.30
2018-10-19T14:38:57.074Z,25.30
2018-10-19T14:41:25.387Z,25.00
2018-10-19T14:43:53.735Z,24.70
2018-10-19T14:46:22.085Z,24.50
2018-10-19T14:48:50.522Z,24.00
2018-10-19T14:51:18.870Z,23.50
2018-10-19T14:53:47.200Z,22.80
2018-10-19T14:56:15.567Z,22.00
2018-10-19T14:58:43.935Z,21.30
2018-10-19T15:01:12.276Z,20.50
2018-10-19T15:03:41.031Z,19.90
2018-10-19T15:06:09.779Z,19.20
2018-10-19T15:08:38.291Z,18.60
2018-10-19T15:11:06.838Z,18.10
2018-10-19T15:13:34.990Z,17.70
2018-10-19T15:16:03.343Z,17.50
2018-10-19T15:18:33.207Z,17.30
2018-10-19T15:21:01.536Z,17.10
2018-10-19T15:23:29.867Z,16.80
2018-10-19T15:25:58.964Z,16.30
2018-10-19T15:28:28.213Z,16.10
2018-10-19T15:30:56.559Z,16.10
2018-10-19T15:33:25.661Z,15.80
2018-10-19T15:35:54.060Z,15.80
2018-10-19T15:38:23.124Z,15.60
2018-10-19T15:40:51.480Z,15.50
2018-10-19T15:43:19.900Z,15.40
2018-10-19T15:45:48.302Z,15.20
2018-10-19T15:48:16.725Z,15.10
2018-10-19T15:50:45.013Z,15.00
2018-10-19T15:53:14.116Z,14.70
2018-10-19T15:55:42.487Z,14.70
2018-10-19T15:58:11.571Z,14.50
2018-10-19T16:00:40.900Z,14.40
2018-10-19T16:03:09.932Z,14.30
2018-10-19T16:05:38.298Z,13.60
2018-10-19T16:08:06.987Z,14.10
2018-10-19T16:10:35.325Z,14.00
2018-10-19T16:13:04.441Z,13.80
2018-10-19T16:15:32.816Z,13.70
2018-10-19T16:18:01.177Z,13.60
2018-10-19T16:20:29.537Z,13.50
2018-10-19T16:22:57.868Z,13.40
2018-10-19T16:25:26.200Z,13.30
2018-10-19T16:27:54.617Z,13.20
2018-10-19T16:30:22.972Z,13.00
2018-10-19T16:32:52.089Z,12.80
2018-10-19T16:35:20.488Z,12.80
2018-10-19T16:37:48.984Z,12.70
2018-10-19T16:40:17.305Z,12.60
2018-10-19T16:42:45.674Z,12.50
2018-10-19T16:45:14.871Z,12.40
2018-10-19T16:47:43.210Z,12.40
2018-10-19T16:50:12.486Z,12.30
2018-10-19T16:52:40.890Z,12.20
2018-10-19T16:55:09.214Z,12.20
2018-10-19T16:57:38.346Z,12.10
2018-10-19T17:00:06.739Z,12.00
2018-10-19T17:02:35.113Z,12.00
2018-10-19T17:05:03.494Z,12.00
2018-10-19T17:07:31.866Z,12.00
2018-10-19T17:10:00.258Z,11.90
2018-10-19T17:12:28.616Z,11.90
2018-10-19T17:14:57.753Z,11.90
2018-10-19T17:17:26.244Z,11.90
2018-10-19T17:19:54.929Z,11.90
2018-10-19T17:22:23.405Z,12.00
2018-10-19T17:24:51.835Z,12.00
2018-10-19T17:27:20.474Z,12.00
2018-10-19T17:29:48.835Z,12.00
2018-10-19T17:32:17.191Z,12.00
2018-10-19T17:34:45.571Z,12.00
2018-10-19T17:37:14.237Z,11.90
2018-10-19T17:39:42.584Z,11.90
2018-10-19T17:42:11.090Z,11.90
2018-10-19T17:44:39.399Z,11.80
2018-10-19T17:47:07.820Z,11.80
2018-10-19T17:49:36.862Z,11.80
2018-10-19T17:52:05.215Z,11.80
2018-10-19T17:54:34.333Z,11.70
2018-10-19T17:57:03.582Z,11.70
2018-10-19T17:59:31.869Z,11.70
2018-10-19T18:02:00.216Z,11.60
2018-10-19T18:04:28.546Z,11.60
2018-10-19T18:06:57.682Z,11.50
2018-10-19T18:09:26.060Z,11.50
2018-10-19T18:11:54.364Z,11.50
2018-10-19T18:14:22.710Z,11.50
2018-10-19T18:16:51.059Z,11.50
2018-10-19T18:19:20.155Z,11.40
2018-10-19T18:21:49.386Z,11.40
2018-10-19T18:24:17.612Z,11.40
2018-10-19T18:26:45.966Z,11.40
2018-10-19T18:29:14.385Z,11.40
2018-10-19T18:31:42.667Z,11.30
2018-10-19T18:34:11.795Z,11.30
2018-10-19T18:36:40.113Z,11.30
2018-10-19T18:39:08.473Z,11.20
2018-10-19T18:41:36.893Z,11.20
2018-10-19T18:44:05.267Z,11.20
2018-10-19T18:46:33.575Z,11.10
2018-10-19T18:49:02.709Z,11.20
2018-10-19T18:51:31.056Z,11.10
2018-10-19T18:53:59.411Z,11.20
2018-10-19T18:56:28.532Z,11.10
2018-10-19T18:58:56.974Z,11.10
2018-10-19T19:01:25.337Z,11.10
2018-10-19T19:03:53.785Z,11.10
2018-10-19T19:06:22.156Z,11.10
2018-10-19T19:08:50.519Z,11.10
2018-10-19T19:11:18.978Z,11.10
2018-10-19T19:13:47.467Z,11.10
2018-10-19T19:16:16.560Z,11.10
2018-10-19T19:18:45.685Z,11.00
2018-10-19T19:21:14.039Z,11.00
2018-10-19T19:23:42.513Z,11.10
2018-10-19T19:26:10.866Z,11.10
2018-10-19T19:28:39.215Z,11.10
2018-10-19T19:31:07.595Z,11.00
2018-10-19T19:36:32.039Z,11.00
2018-10-19T19:39:00.478Z,11.00
2018-10-19T19:41:28.906Z,10.90
2018-10-19T19:43:57.318Z,10.80
2018-10-19T19:46:25.678Z,10.70
2018-10-19T19:48:59.787Z,10.70
2018-10-19T19:51:28.121Z,10.60
2018-10-19T19:53:56.477Z,10.60
2018-10-19T19:56:24.864Z,10.60
2018-10-19T19:58:53.197Z,10.60
2018-10-19T20:01:21.582Z,10.50
2018-10-19T20:03:49.920Z,10.50
2018-10-19T20:06:18.326Z,10.50
2018-10-19T20:08:46.623Z,10.40
2018-10-19T20:11:15.082Z,10.40
2018-10-19T20:13:43.447Z,10.40
2018-10-19T20:16:11.933Z,10.40
2018-10-19T20:18:40.270Z,10.40
2018-10-19T20:21:09.384Z,10.40
2018-10-19T20:23:37.724Z,10.30
2018-10-19T20:26:06.305Z,10.40
2018-10-19T20:28:34.584Z,10.30
2018-10-19T20:31:02.916Z,10.30
2018-10-19T20:33:31.320Z,10.30
2018-10-19T20:35:59.608Z,10.20
2018-10-19T20:38:27.958Z,10.20
2018-10-19T20:40:56.370Z,10.20
2018-10-19T20:43:24.681Z,10.10
2018-10-19T20:45:53.038Z,10.00
2018-10-19T20:48:21.657Z,10.00
2018-10-19T20:50:49.986Z,9.90
2018-10-19T20:53:18.401Z,9.90
2018-10-19T20:55:46.762Z,9.80
2018-10-19T20:58:15.077Z,9.80
2018-10-19T21:00:43.486Z,9.70
2018-10-19T21:03:11.792Z,9.60
2018-10-19T21:05:40.202Z,9.60
2018-10-19T21:08:08.561Z,9.60
2018-10-19T21:10:37.134Z,9.50
2018-10-19T21:13:05.469Z,9.50
2018-10-19T21:15:33.836Z,9.40
2018-10-19T21:18:02.216Z,9.30
2018-10-19T21:20:30.568Z,9.30
2018-10-19T21:22:58.964Z,9.30
2018-10-19T21:25:27.228Z,9.20
2018-10-19T21:27:56.356Z,9.10
2018-10-19T21:30:24.729Z,9.10
2018-10-19T21:32:53.078Z,9.10
2018-10-19T21:35:21.442Z,9.00
2018-10-19T21:37:49.786Z,9.00
2018-10-19T21:40:18.122Z,8.90
2018-10-19T21:42:47.206Z,8.90
2018-10-19T21:45:16.294Z,8.90
2018-10-19T21:47:44.635Z,8.90
2018-10-19T21:50:13.124Z,8.80
2018-10-19T21:52:41.485Z,8.80
2018-10-19T21:55:09.813Z,8.80
2018-10-19T21:57:38.201Z,8.70
2018-10-19T22:00:07.309Z,8.60
2018-10-19T22:02:36.405Z,8.50
2018-10-19T22:05:04.880Z,8.50
2018-10-19T22:07:33.174Z,8.40
2018-10-19T22:10:02.314Z,8.30
2018-10-19T22:12:30.654Z,8.30
2018-10-19T22:14:59.936Z,8.30
2018-10-19T22:17:29.174Z,8.30
2018-10-19T22:19:57.523Z,8.30
2018-10-19T22:22:25.861Z,8.20
2018-10-19T22:24:54.262Z,8.20
2018-10-19T22:27:22.558Z,8.20
2018-10-19T22:29:51.644Z,8.20
2018-10-19T22:32:20.785Z,8.10
2018-10-19T22:34:49.129Z,8.10
2018-10-19T22:37:18.266Z,8.10
2018-10-19T22:39:46.597Z,8.00
2018-10-19T22:42:15.719Z,8.00
2018-10-19T22:44:44.104Z,8.00
2018-10-19T22:47:12.509Z,7.90
2018-10-19T22:49:40.809Z,7.90
2018-10-19T22:52:09.167Z,7.90
2018-10-19T22:54:37.488Z,7.90
2018-10-19T22:57:06.635Z,7.90
2018-10-19T22:59:34.976Z,7.90
2018-10-19T23:02:03.327Z,7.80
2018-10-19T23:04:32.417Z,7.80
2018-10-19T23:07:00.815Z,7.80
2018-10-19T23:09:29.093Z,7.80
2018-10-19T23:11:57.624Z,7.80
2018-10-19T23:14:25.980Z,7.80
2018-10-19T23:16:54.375Z,7.80
2018-10-19T23:19:22.759Z,7.70
2018-10-19T23:21:51.141Z,7.70
2018-10-19T23:24:19.461Z,7.70
2018-10-19T23:26:47.989Z,7.70
2018-10-19T23:29:16.426Z,7.70
2018-10-19T23:31:45.475Z,7.70
2018-10-19T23:34:13.811Z,7.70
2018-10-19T23:36:42.921Z,7.70
2018-10-19T23:39:11.270Z,7.70
2018-10-19T23:41:39.591Z,7.80
2018-10-19T23:44:07.944Z,7.80
2018-10-19T23:46:37.123Z,7.70
2018-10-19T23:49:05.418Z,7.70
2018-10-19T23:51:33.725Z,7.70
2018-10-19T23:54:02.063Z,7.60
2018-10-19T23:56:30.473Z,7.60
2018-10-19T23:58:58.922Z,7.50
